createdAt,value
2023-01-08T00:04:44.449Z,99957.19
2023-01-08T00:09:36.172Z,100031.22
2023-01-08T00:14:27.736Z,100015.50
2023-01-08T00:19:19.505Z,99871.72
2023-01-08T00:24:11.583Z,100007.78
2023-01-08T00:29:03.246Z,99995.13
2023-01-08T00:33:54.805Z,99999.78
2023-01-08T00:38:47.265Z,100002.75
2023-01-08T00:43:39.114Z,99886.97
2023-01-08T00:48:31.299Z,99978.59
2023-01-08T00:53:23.669Z,99986.06
2023-01-08T00:58:16.066Z,99891.84
2023-01-08T01:03:07.851Z,99938.56
2023-01-08T01:07:59.432Z,99952.84
2023-01-08T01:12:51.193Z,99901.00
2023-01-08T01:17:44.540Z,99989.75
2023-01-08T01:22:36.839Z,99973.78
2023-01-08T01:27:28.384Z,99886.16
2023-01-08T01:32:20.409Z,99941.84
2023-01-08T01:37:13.214Z,99901.09
2023-01-08T01:42:04.863Z,99854.06
2023-01-08T01:46:56.507Z,99978.19
2023-01-08T01:51:52.265Z,99966.09
2023-01-08T01:56:45.984Z,99975.16
2023-01-08T02:01:38.474Z,99963.72
2023-01-08T02:06:49.193Z,99945.44
2023-01-08T02:12:09.665Z,99949.66
2023-01-08T02:17:09.446Z,99902.13
2023-01-08T02:22:14.948Z,99935.25
2023-01-08T02:27:08.214Z,99884.13
2023-01-08T02:32:00.168Z,99896.00
2023-01-08T02:36:54.457Z,99865.38
2023-01-08T02:42:01.727Z,99903.28
2023-01-08T02:46:56.565Z,99850.22
2023-01-08T02:51:53.336Z,99845.41
2023-01-08T02:56:49.795Z,99815.84
2023-01-08T03:01:42.470Z,99871.09
2023-01-08T03:06:34.297Z,99877.50
2023-01-08T03:11:32.120Z,99868.50
2023-01-08T03:16:34.321Z,99801.38
2023-01-08T03:21:27.224Z,99876.22
2023-01-08T03:26:24.594Z,99865.28
2023-01-08T03:31:18.973Z,99788.84
2023-01-08T03:36:15.600Z,99838.25
2023-01-08T03:41:13.710Z,99812.38
2023-01-08T03:46:10.289Z,99863.06
2023-01-08T03:51:02.078Z,99834.06
2023-01-08T03:55:53.691Z,99802.84
2023-01-08T04:00:45.293Z,99783.31
2023-01-08T04:05:36.844Z,99771.78
2023-01-08T04:10:28.464Z,99842.09
2023-01-08T04:15:20.551Z,99784.72
2023-01-08T04:20:12.157Z,99804.81
2023-01-08T04:25:04.098Z,99824.78
2023-01-08T04:29:55.652Z,99823.97
2023-01-08T04:34:47.221Z,99819.88
2023-01-08T04:39:38.890Z,99824.88
2023-01-08T04:44:31.082Z,99824.66
2023-01-08T04:49:22.707Z,99829.34
2023-01-08T04:54:14.448Z,99768.34
2023-01-08T04:59:06.047Z,99819.88
2023-01-08T05:04:00.197Z,99693.09
2023-01-08T05:08:51.940Z,99807.78
2023-01-08T05:13:43.862Z,99675.56
2023-01-08T05:18:35.557Z,99742.47
2023-01-08T05:23:27.632Z,99785.00
2023-01-08T05:28:19.177Z,99788.63
2023-01-08T05:33:10.762Z,99736.41
2023-01-08T05:38:02.409Z,99744.84
2023-01-08T05:42:53.951Z,99762.84
2023-01-08T05:47:45.590Z,99709.47
2023-01-08T05:52:37.231Z,99791.22
2023-01-08T05:57:28.868Z,99734.00
2023-01-08T06:02:20.515Z,99732.19
2023-01-08T06:07:12.146Z,99703.88
2023-01-08T06:12:03.945Z,99694.75
2023-01-08T06:16:55.531Z,99778.91
2023-01-08T06:21:47.105Z,99735.84
2023-01-08T06:26:38.827Z,99691.91
2023-01-08T06:31:30.630Z,99793.19
2023-01-08T06:36:22.270Z,99789.97
2023-01-08T06:41:13.963Z,99795.34
2023-01-08T06:46:06.859Z,99793.13
2023-01-08T06:51:02.512Z,99725.47
2023-01-08T06:55:57.013Z,99761.09
2023-01-08T07:00:48.909Z,99743.53
2023-01-08T07:05:40.539Z,99723.31
2023-01-08T07:10:34.206Z,99866.41
2023-01-08T07:15:25.809Z,99776.50
2023-01-08T07:20:17.478Z,99852.97
2023-01-08T07:25:09.311Z,99793.78
2023-01-08T07:30:00.936Z,99810.09
2023-01-08T07:34:54.549Z,99848.25
2023-01-08T07:39:46.684Z,99833.06
2023-01-08T07:44:38.320Z,99831.47
2023-01-08T07:49:29.893Z,99851.88
2023-01-08T07:54:21.549Z,99831.75
2023-01-08T07:59:13.096Z,99790.78
2023-01-08T08:04:04.699Z,99761.78
2023-01-08T08:08:57.504Z,99755.31
2023-01-08T08:13:52.645Z,99793.00
2023-01-08T08:18:44.981Z,99808.75
2023-01-08T08:23:37.036Z,99767.84
2023-01-08T08:28:28.616Z,99827.66
2023-01-08T08:33:20.312Z,99762.66
2023-01-08T08:38:12.008Z,99807.06
2023-01-08T08:43:04.666Z,99738.41
2023-01-08T08:47:56.388Z,99802.28
2023-01-08T08:52:48.957Z,99752.44
2023-01-08T08:57:40.580Z,99805.59
2023-01-08T09:02:32.486Z,99798.63
2023-01-08T09:07:24.333Z,99720.50
2023-01-08T09:12:16.034Z,99681.75
2023-01-08T09:17:07.636Z,99739.50
2023-01-08T09:21:59.220Z,99776.56
2023-01-08T09:26:54.271Z,99721.84
2023-01-08T09:31:46.686Z,99780.91
2023-01-08T09:36:38.602Z,99679.44
2023-01-08T09:41:35.802Z,99740.91
2023-01-08T09:46:29.036Z,99786.75
2023-01-08T09:51:21.736Z,99743.88
2023-01-08T09:56:16.928Z,99783.81
2023-01-08T10:01:13.666Z,99787.66
2023-01-08T10:06:13.714Z,99774.31
2023-01-08T10:11:07.037Z,99765.78
2023-01-08T10:16:00.204Z,99728.00
2023-01-08T10:20:53.953Z,99715.88
2023-01-08T10:25:53.835Z,99718.41
2023-01-08T10:30:45.424Z,99710.88
2023-01-08T10:35:43.669Z,99649.53
2023-01-08T10:40:40.065Z,99605.50
2023-01-08T10:45:32.663Z,99676.00
2023-01-08T10:50:28.425Z,99685.00
2023-01-08T10:55:24.886Z,99608.91
2023-01-08T11:00:28.168Z,99637.94
2023-01-08T11:05:20.224Z,99663.66
2023-01-08T11:10:25.856Z,99464.81
2023-01-08T11:15:20.413Z,99655.78
2023-01-08T11:20:28.015Z,99642.34
2023-01-08T11:25:30.100Z,99440.97
2023-01-08T11:30:24.551Z,99632.00
2023-01-08T11:35:26.890Z,99543.03
2023-01-08T11:40:31.947Z,99579.47
2023-01-08T11:45:38.623Z,99575.66
2023-01-08T11:50:43.263Z,99486.03
2023-01-08T11:55:37.850Z,99603.00
2023-01-08T12:00:44.579Z,99625.78
2023-01-08T12:05:56.860Z,99570.72
2023-01-08T12:11:12.485Z,99550.59
2023-01-08T12:16:26.820Z,99587.34
2023-01-08T12:21:49.476Z,99583.00
2023-01-08T12:26:53.207Z,99579.06
2023-01-08T12:32:17.155Z,99580.44
2023-01-08T12:37:18.598Z,99497.56
2023-01-08T12:42:18.059Z,99470.53
2023-01-08T12:47:16.230Z,99559.00
2023-01-08T12:52:16.909Z,99524.88
2023-01-08T12:57:15.582Z,99522.72
2023-01-08T13:02:19.396Z,99560.75
2023-01-08T13:07:19.543Z,99537.28
2023-01-08T13:12:15.012Z,99400.19
2023-01-08T13:17:16.624Z,99381.97
2023-01-08T13:22:25.543Z,99485.16
2023-01-08T13:27:17.052Z,99525.06
2023-01-08T13:32:25.452Z,99517.13
2023-01-08T13:37:27.851Z,99517.03
2023-01-08T13:42:31.402Z,99481.34
2023-01-08T13:47:46.752Z,99489.38
2023-01-08T13:52:44.167Z,99451.28
2023-01-08T13:57:43.471Z,99490.75
2023-01-08T14:02:50.531Z,99316.22
2023-01-08T14:07:42.715Z,99453.63
2023-01-08T14:12:34.438Z,99486.34
2023-01-08T14:17:31.093Z,99260.47
2023-01-08T14:22:29.835Z,99375.31
2023-01-08T14:27:25.034Z,99468.00
2023-01-08T14:32:19.227Z,99464.00
2023-01-08T14:37:15.479Z,99423.38
2023-01-08T14:42:34.910Z,99454.56
2023-01-08T14:47:34.072Z,99371.66
2023-01-08T14:52:25.931Z,99452.72
2023-01-08T14:57:19.473Z,99367.38
2023-01-08T15:02:23.701Z,99382.78
2023-01-08T15:07:27.797Z,99420.00
2023-01-08T15:12:25.944Z,99422.94
2023-01-08T15:17:20.335Z,99401.59
2023-01-08T15:22:20.003Z,99397.56
2023-01-08T15:27:19.144Z,99445.78
2023-01-08T15:32:13.655Z,99444.03
2023-01-08T15:37:05.393Z,99395.78
2023-01-08T15:42:19.785Z,99334.19
2023-01-08T15:47:11.455Z,99397.78
2023-01-08T15:52:03.091Z,99381.94
2023-01-08T15:56:54.734Z,99423.69
2023-01-08T16:01:46.405Z,99359.06
2023-01-08T16:06:38.098Z,99356.56
2023-01-08T16:11:30.050Z,99409.31
2023-01-08T16:16:22.208Z,99367.25
2023-01-08T16:21:14.284Z,99255.28
2023-01-08T16:26:15.698Z,99361.06
2023-01-08T16:31:08.523Z,99375.72
2023-01-08T16:36:02.211Z,99422.31
2023-01-08T16:40:56.646Z,99272.41
2023-01-08T16:45:48.870Z,99339.16
2023-01-08T16:50:41.503Z,99323.25
2023-01-08T16:55:33.105Z,99386.97
2023-01-08T17:00:24.668Z,99372.53
2023-01-08T17:05:16.866Z,99335.31
2023-01-08T17:10:09.078Z,99354.06
2023-01-08T17:15:00.789Z,99366.31
2023-01-08T17:19:52.431Z,99365.38
2023-01-08T17:24:44.315Z,99321.75
2023-01-08T17:29:35.962Z,99341.25
2023-01-08T17:34:27.518Z,99317.63
2023-01-08T17:39:19.257Z,99359.44
2023-01-08T17:44:12.749Z,99329.59
2023-01-08T17:49:05.312Z,99267.91
2023-01-08T17:53:57.307Z,99340.03
2023-01-08T17:58:50.231Z,99330.97
2023-01-08T18:03:41.779Z,99229.75
2023-01-08T18:08:33.342Z,99312.72
2023-01-08T18:13:24.960Z,99309.63
2023-01-08T18:18:16.556Z,99271.00
2023-01-08T18:23:08.277Z,99243.69
2023-01-08T18:28:00.339Z,99197.31
2023-01-08T18:32:51.946Z,99262.38
2023-01-08T18:37:43.599Z,99239.91
2023-01-08T18:42:35.197Z,99294.84
2023-01-08T18:47:28.777Z,99281.69
2023-01-08T18:52:21.182Z,99265.91
2023-01-08T18:57:12.777Z,99233.56
2023-01-08T19:02:04.617Z,99212.47
2023-01-08T19:06:56.273Z,99257.13
2023-01-08T19:11:48.011Z,99242.13
2023-01-08T19:16:40.960Z,99231.00
2023-01-08T19:21:33.198Z,99099.78
2023-01-08T19:26:24.892Z,99173.91
2023-01-08T19:31:18.164Z,99185.03
2023-01-08T19:36:15.845Z,99180.69
2023-01-08T19:41:28.782Z,99185.66
2023-01-08T19:46:20.813Z,99179.53
2023-01-08T19:51:13.173Z,99172.72
2023-01-08T19:56:10.686Z,99179.47
2023-01-08T20:01:12.079Z,99008.38
2023-01-08T20:06:12.243Z,98892.13
2023-01-08T20:11:08.611Z,99123.84
2023-01-08T20:16:00.244Z,99143.03
2023-01-08T20:20:51.903Z,99141.22
2023-01-08T20:25:43.519Z,98979.44
2023-01-08T20:30:35.158Z,99127.34
2023-01-08T20:35:26.785Z,99039.34
2023-01-08T20:40:18.401Z,99042.28
2023-01-08T20:45:10.165Z,99113.09
2023-01-08T20:50:03.258Z,99099.53
2023-01-08T20:54:58.659Z,99097.34
2023-01-08T20:59:50.360Z,99086.06
2023-01-08T21:04:43.735Z,99040.22
2023-01-08T21:09:35.384Z,99073.53
2023-01-08T21:27:28.440Z,99002.19
2023-01-08T21:32:20.156Z,99039.63
2023-01-08T21:37:12.268Z,98987.25
2023-01-08T21:42:22.787Z,98997.97
2023-01-08T21:47:17.059Z,99005.00
2023-01-08T21:52:27.782Z,98958.97
2023-01-08T23:16:24.665Z,98956.28
2023-01-08T23:21:19.493Z,98960.47
2023-01-08T23:26:14.089Z,98958.78
2023-01-08T23:31:10.192Z,98851.84
2023-01-08T23:36:02.126Z,98879.06
2023-01-08T23:40:53.937Z,98975.66
2023-01-08T23:45:45.679Z,98880.06
2023-01-08T23:50:37.313Z,98928.78
2023-01-08T23:55:29.062Z,98930.59
